KHTS/HTS METAR and TAF weather

Enter ICAO airport designator
Station Type Date Time Source
KHTS METAR 2018/12/18 18:51 UTC NOAA

KHTS 181851Z VRB03KT 10SM CLR 06/M02 A3019 RMK AO2 SLP229 T00611022


Station Type Date Time Source
KHTS Decoded METAR 2018/12/18 18:51 UTC NOAA

TRI-STATE AIRPORT, WV, United States (KHTS) 38-22N 082-33W 254M
Dec 18, 2018 - 01:51 PM EST / 2018.12.18 1851 UTC
Wind: Variable at 3 MPH (3 KT):0
Visibility: 10 mile(s):0
Sky conditions: clear
Temperature: 43.0 F (6.1 C)
Dew Point: 28.0 F (-2.2 C)
Relative Humidity: 55%
Pressure (altimeter): 30.19 in. Hg (1022 hPa)
ob: KHTS 181851Z VRB03KT 10SM CLR 06/M02 A3019 RMK AO2 SLP229 T00611022
cycle: 19

Station Type Date Time Source
KHTS TAF 2018/12/18 18:30 UTC NOAA

TAF KHTS 181728Z 1818/1918 00000KT P6SM FEW250
FM191000 00000KT 5SM BR FEW002
FM191400 VRB03KT P6SM FEW210


Example: see airport list